createdAt,value
2019-02-09T00:00:01.470Z,79.10
2019-02-09T00:02:33.537Z,80.02
2019-02-09T00:05:06.069Z,79.71
2019-02-09T00:07:38.065Z,79.36
2019-02-09T00:10:10.281Z,79.32
2019-02-09T00:12:42.305Z,79.63
2019-02-09T00:15:14.627Z,79.70
2019-02-09T00:17:46.630Z,79.70
2019-02-09T00:20:18.739Z,79.74
2019-02-09T00:22:50.796Z,79.24
2019-02-09T00:25:22.870Z,79.70
2019-02-09T00:27:54.899Z,79.70
2019-02-09T00:30:26.937Z,79.47
2019-02-09T00:32:58.970Z,79.93
2019-02-09T00:35:30.954Z,80.08
2019-02-09T00:38:03.047Z,80.06
2019-02-09T00:40:35.059Z,79.90
2019-02-09T00:43:07.022Z,79.75
2019-02-09T00:45:39.170Z,79.75
2019-02-09T00:48:11.197Z,79.98
2019-02-09T00:50:43.180Z,79.87
2019-02-09T00:53:15.204Z,79.75
2019-02-09T00:55:47.211Z,79.83
2019-02-09T00:58:19.195Z,79.76
2019-02-09T01:00:51.204Z,79.89
2019-02-09T01:03:23.178Z,80.02
2019-02-09T01:05:55.180Z,79.89
2019-02-09T01:08:27.170Z,79.60
2019-02-09T01:10:59.180Z,79.63
2019-02-09T01:13:31.146Z,79.59
2019-02-09T01:16:03.268Z,79.92
2019-02-09T01:18:35.248Z,79.90
2019-02-09T01:21:07.234Z,79.80
2019-02-09T01:23:39.203Z,80.16
2019-02-09T01:26:11.225Z,80.31
2019-02-09T01:28:43.293Z,80.31
2019-02-09T01:31:15.247Z,79.90
2019-02-09T01:33:47.229Z,79.92
2019-02-09T01:36:19.218Z,79.79
2019-02-09T01:38:51.275Z,79.40
2019-02-09T01:41:23.284Z,79.60
2019-02-09T01:43:55.268Z,79.72
2019-02-09T01:46:27.263Z,79.73
2019-02-09T01:48:59.245Z,79.61
2019-02-09T01:51:31.258Z,79.21
2019-02-09T01:54:03.584Z,80.02
2019-02-09T01:56:35.633Z,79.79
2019-02-09T01:59:07.627Z,79.50
2019-02-09T02:01:39.583Z,80.53
2019-02-09T02:04:11.565Z,80.90
2019-02-09T02:06:43.604Z,80.68
2019-02-09T02:09:15.684Z,80.87
2019-02-09T02:11:47.681Z,80.84
2019-02-09T02:14:19.716Z,81.04
2019-02-09T02:16:51.683Z,81.37
2019-02-09T02:19:23.793Z,81.31
2019-02-09T02:21:55.781Z,81.10
2019-02-09T02:24:27.784Z,80.73
2019-02-09T02:26:59.797Z,80.25
2019-02-09T02:29:31.994Z,80.54
2019-02-09T02:32:04.125Z,80.06
2019-02-09T02:34:36.113Z,79.88
2019-02-09T02:37:08.157Z,80.47
2019-02-09T02:39:40.192Z,80.41
2019-02-09T02:42:12.185Z,80.39
2019-02-09T02:44:44.201Z,79.92
2019-02-09T02:47:16.173Z,80.02
2019-02-09T02:49:48.148Z,79.95
2019-02-09T02:52:20.236Z,79.31
2019-02-09T02:54:52.256Z,79.75
2019-02-09T02:57:24.250Z,79.76
2019-02-09T02:59:56.244Z,80.05
2019-02-09T03:02:28.225Z,80.18
2019-02-09T03:05:00.282Z,79.80
2019-02-09T03:07:32.272Z,79.81
2019-02-09T03:10:05.327Z,79.67
2019-02-09T03:12:37.324Z,79.03
2019-02-09T03:15:12.212Z,78.62
2019-02-09T03:17:44.203Z,79.07
2019-02-09T03:20:57.426Z,79.26
2019-02-09T03:23:29.395Z,79.21
2019-02-09T03:26:01.406Z,79.25
2019-02-09T03:28:33.375Z,79.08
2019-02-09T03:31:05.385Z,79.11
2019-02-09T03:33:37.376Z,78.95
2019-02-09T03:36:09.364Z,78.37
2019-02-09T03:38:41.323Z,78.55
2019-02-09T03:41:13.309Z,78.91
2019-02-09T03:43:45.269Z,79.36
2019-02-09T03:46:17.254Z,79.28
2019-02-09T03:48:49.219Z,79.20
2019-02-09T03:51:21.195Z,79.30
2019-02-09T03:53:53.191Z,79.38
2019-02-09T03:56:25.179Z,79.15
2019-02-09T03:58:57.145Z,78.81
2019-02-09T04:01:29.124Z,78.87
2019-02-09T04:04:01.081Z,79.05
2019-02-09T04:07:13.898Z,78.75
2019-02-09T04:09:45.864Z,78.16
2019-02-09T04:12:17.834Z,79.07
2019-02-09T04:14:49.811Z,79.41
2019-02-09T04:17:21.853Z,79.86
2019-02-09T04:19:53.828Z,80.06
2019-02-09T04:22:25.817Z,80.04
2019-02-09T04:24:57.797Z,79.51
2019-02-09T04:27:29.804Z,80.26
2019-02-09T04:30:01.860Z,80.62
2019-02-09T04:32:33.851Z,80.90
2019-02-09T04:35:06.169Z,81.10
2019-02-09T04:37:38.125Z,81.41
2019-02-09T04:40:51.688Z,82.01
2019-02-09T04:43:23.691Z,82.65
2019-02-09T04:45:55.677Z,83.88
2019-02-09T04:51:27.438Z,84.34
2019-02-09T04:53:59.453Z,84.54
2019-02-09T04:56:31.511Z,84.96
2019-02-09T04:59:03.513Z,85.28
2019-02-09T05:01:35.500Z,84.95
2019-02-09T05:04:07.472Z,83.88
2019-02-09T05:06:39.440Z,84.38
2019-02-09T05:09:11.499Z,83.23
2019-02-09T05:11:43.461Z,83.72
2019-02-09T05:14:15.509Z,83.81
2019-02-09T05:16:47.496Z,84.74
2019-02-09T05:19:19.489Z,84.76
2019-02-09T05:21:51.441Z,85.04
2019-02-09T05:24:23.446Z,84.89
2019-02-09T05:26:55.415Z,83.79
2019-02-09T05:29:27.452Z,83.38
2019-02-09T05:31:59.428Z,82.63
2019-02-09T05:34:31.505Z,83.06
2019-02-09T05:37:44.293Z,83.08
2019-02-09T05:40:17.887Z,82.63
2019-02-09T05:42:49.855Z,81.56
2019-02-09T05:46:03.364Z,81.23
2019-02-09T05:48:35.355Z,80.76
2019-02-09T05:51:07.335Z,79.93
2019-02-09T05:53:39.310Z,79.50
2019-02-09T05:58:49.996Z,78.47
2019-02-09T06:01:22.009Z,78.29
2019-02-09T06:03:53.980Z,78.30
2019-02-09T06:06:25.997Z,77.80
2019-02-09T06:08:57.986Z,77.92
2019-02-09T06:11:30.071Z,77.69
2019-02-09T06:14:02.111Z,77.50
2019-02-09T06:16:34.105Z,77.19
2019-02-09T06:19:06.078Z,77.63
2019-02-09T06:21:38.050Z,77.88
2019-02-09T06:24:10.274Z,78.37
2019-02-09T06:26:42.303Z,78.63
2019-02-09T06:29:14.268Z,78.39
2019-02-09T06:31:46.323Z,78.34
2019-02-09T06:34:18.290Z,78.97
2019-02-09T06:36:50.296Z,78.41
2019-02-09T06:39:22.279Z,78.26
2019-02-09T06:41:54.287Z,78.49
2019-02-09T06:44:26.279Z,78.93
2019-02-09T06:46:58.256Z,79.38
2019-02-09T06:49:30.260Z,78.80
2019-02-09T06:52:02.321Z,79.32
2019-02-09T06:54:34.322Z,79.26
2019-02-09T06:57:06.326Z,79.81
2019-02-09T07:00:19.112Z,79.82
2019-02-09T07:02:51.097Z,79.67
2019-02-09T07:05:23.064Z,80.02
2019-02-09T07:07:55.059Z,80.04
2019-02-09T07:10:27.100Z,79.95
2019-02-09T07:12:59.131Z,80.02
2019-02-09T07:15:31.454Z,79.76
2019-02-09T07:21:02.901Z,78.30
2019-02-09T07:23:34.895Z,78.47
2019-02-09T07:26:06.902Z,78.58
2019-02-09T07:28:39.049Z,78.57
2019-02-09T07:31:11.054Z,78.68
2019-02-09T07:33:43.091Z,78.85
2019-02-09T07:36:15.069Z,78.89
2019-02-09T07:38:47.073Z,79.18
2019-02-09T07:41:19.056Z,79.11
2019-02-09T07:43:51.124Z,78.85
2019-02-09T07:46:23.107Z,78.07
2019-02-09T07:48:55.198Z,75.66
2019-02-09T07:51:27.230Z,73.46
2019-02-09T07:53:59.272Z,71.60
2019-02-09T07:56:31.311Z,70.46
2019-02-09T07:59:03.424Z,69.27
2019-02-09T08:01:35.493Z,69.27
2019-02-09T08:04:07.529Z,69.57
2019-02-09T08:06:41.254Z,69.55
2019-02-09T08:09:13.448Z,69.70
2019-02-09T08:11:45.532Z,69.92
2019-02-09T08:14:17.548Z,70.26
2019-02-09T08:16:49.595Z,70.62
2019-02-09T08:19:29.067Z,70.82
2019-02-09T08:22:01.192Z,70.70
2019-02-09T08:24:33.304Z,70.48
2019-02-09T08:27:05.335Z,70.58
2019-02-09T08:29:37.324Z,70.01
2019-02-09T08:32:12.710Z,69.71
2019-02-09T08:34:43.269Z,68.48
2019-02-09T08:37:15.321Z,67.15
2019-02-09T08:39:47.322Z,65.91
2019-02-09T08:42:22.074Z,65.29
2019-02-09T08:44:54.313Z,65.37
2019-02-09T08:47:26.274Z,64.31
2019-02-09T08:49:58.277Z,63.86
2019-02-09T08:52:30.318Z,63.19
2019-02-09T08:55:02.365Z,63.08
2019-02-09T08:57:34.404Z,63.08
2019-02-09T09:00:08.739Z,62.19
2019-02-09T09:02:40.769Z,61.58
2019-02-09T09:05:13.071Z,62.26
2019-02-09T09:07:45.296Z,61.69
2019-02-09T09:10:18.074Z,61.04
2019-02-09T09:12:50.110Z,60.60
2019-02-09T09:15:28.861Z,59.58
2019-02-09T09:18:00.939Z,60.12
2019-02-09T09:20:34.522Z,59.79
2019-02-09T09:23:06.578Z,60.26
2019-02-09T09:25:38.658Z,60.24
2019-02-09T09:28:10.715Z,60.21
2019-02-09T09:30:42.824Z,59.53
2019-02-09T09:33:14.869Z,58.37
2019-02-09T09:35:49.442Z,58.73
2019-02-09T09:38:21.491Z,58.97
2019-02-09T09:40:53.540Z,59.05
2019-02-09T09:43:25.611Z,59.87
2019-02-09T09:45:57.672Z,60.05
2019-02-09T09:48:29.770Z,60.58
2019-02-09T09:51:01.820Z,60.38
2019-02-09T09:53:33.883Z,60.28
2019-02-09T09:56:06.150Z,59.90
2019-02-09T09:58:38.182Z,60.62
2019-02-09T10:01:10.182Z,60.30
2019-02-09T10:03:42.390Z,60.27
2019-02-09T10:06:14.399Z,59.58
2019-02-09T10:08:46.423Z,60.31
2019-02-09T10:11:18.440Z,60.07
2019-02-09T10:13:50.447Z,60.00
2019-02-09T10:16:22.464Z,59.78
2019-02-09T10:18:54.489Z,59.14
2019-02-09T10:21:26.540Z,59.36
2019-02-09T10:23:58.618Z,60.03
2019-02-09T10:26:30.574Z,60.49
2019-02-09T10:29:02.611Z,60.74
2019-02-09T10:31:34.657Z,60.99
2019-02-09T10:34:06.637Z,61.54
2019-02-09T10:36:38.681Z,60.81
2019-02-09T10:39:10.662Z,61.20
2019-02-09T10:41:42.869Z,61.81
2019-02-09T10:44:14.896Z,62.60
2019-02-09T10:46:47.019Z,63.21
2019-02-09T10:49:18.996Z,66.97
2019-02-09T10:51:51.143Z,75.65
2019-02-09T10:54:23.219Z,75.65
2019-02-09T10:56:55.276Z,75.81
2019-02-09T10:59:27.275Z,76.84
2019-02-09T11:01:59.343Z,77.03
2019-02-09T11:04:31.393Z,78.68
2019-02-09T11:07:03.539Z,79.14
2019-02-09T11:09:35.780Z,79.08
2019-02-09T11:12:07.822Z,78.99
2019-02-09T11:14:39.775Z,78.81
2019-02-09T11:17:13.859Z,78.08
2019-02-09T11:19:46.786Z,77.77
2019-02-09T11:22:18.887Z,77.56
2019-02-09T11:24:50.980Z,78.50
2019-02-09T11:27:23.078Z,78.46
2019-02-09T11:29:55.089Z,77.48
2019-02-09T11:32:27.193Z,77.21
2019-02-09T11:34:59.210Z,76.29
2019-02-09T11:37:31.291Z,76.61
2019-02-09T11:40:04.522Z,76.85
2019-02-09T11:42:36.579Z,76.89
2019-02-09T11:45:12.071Z,76.06
2019-02-09T11:47:44.128Z,75.17
2019-02-09T11:50:16.266Z,75.17
2019-02-09T11:52:48.511Z,74.41
2019-02-09T11:55:20.594Z,74.10
2019-02-09T11:57:52.639Z,72.27
2019-02-09T12:00:32.943Z,71.68
2019-02-09T12:03:13.967Z,71.86
2019-02-09T12:05:39.120Z,71.64
2019-02-09T12:08:11.164Z,71.18
2019-02-09T12:10:43.183Z,70.92
2019-02-09T12:13:18.142Z,69.49
2019-02-09T12:15:50.236Z,68.24
2019-02-09T12:18:22.286Z,68.04
2019-02-09T12:20:54.341Z,67.46
2019-02-09T12:23:26.410Z,66.33
2019-02-09T12:25:58.492Z,65.90
2019-02-09T12:28:30.536Z,65.95
2019-02-09T12:31:02.603Z,65.25
2019-02-09T12:33:34.630Z,65.08
2019-02-09T12:36:06.680Z,66.25
2019-02-09T12:38:38.692Z,68.26
2019-02-09T12:41:10.750Z,70.82
2019-02-09T12:43:42.777Z,72.35
2019-02-09T12:46:14.833Z,72.92
2019-02-09T12:48:46.903Z,73.98
2019-02-09T12:51:18.940Z,74.98
2019-02-09T12:53:51.016Z,73.21
2019-02-09T12:56:23.036Z,73.63
2019-02-09T12:58:55.099Z,72.48
2019-02-09T13:01:27.245Z,72.42
2019-02-09T13:03:59.211Z,72.02
2019-02-09T13:06:31.261Z,69.07
2019-02-09T13:09:06.598Z,66.46
2019-02-09T13:11:38.634Z,64.67
2019-02-09T13:14:10.670Z,64.77
2019-02-09T13:16:44.253Z,64.62
2019-02-09T13:19:16.259Z,63.88
2019-02-09T13:21:50.705Z,63.88
2019-02-09T13:24:22.729Z,63.71
2019-02-09T13:26:54.714Z,63.45
2019-02-09T13:29:26.744Z,63.51
2019-02-09T13:31:58.788Z,63.44
2019-02-09T13:34:30.786Z,62.54
2019-02-09T13:37:02.890Z,62.94
2019-02-09T13:39:34.920Z,62.88
2019-02-09T13:42:06.976Z,62.67
2019-02-09T13:44:39.005Z,63.42
2019-02-09T13:47:11.085Z,62.60
2019-02-09T13:49:43.156Z,62.08
2019-02-09T13:52:15.246Z,62.23
2019-02-09T13:54:47.298Z,60.72
2019-02-09T13:57:19.338Z,60.72
2019-02-09T13:59:51.414Z,61.61
2019-02-09T14:02:23.456Z,61.61
2019-02-09T14:04:55.457Z,61.63
2019-02-09T14:07:27.542Z,61.93
2019-02-09T14:09:59.608Z,61.46
2019-02-09T14:12:31.679Z,61.03
2019-02-09T14:15:05.695Z,61.54
2019-02-09T14:17:37.720Z,61.99
2019-02-09T14:20:10.672Z,62.29
2019-02-09T14:22:42.682Z,62.05
2019-02-09T14:25:14.979Z,63.15
2019-02-09T14:27:48.480Z,63.70
2019-02-09T14:30:22.333Z,63.18
2019-02-09T14:32:54.391Z,63.63
2019-02-09T14:35:26.445Z,63.86
2019-02-09T14:37:58.548Z,63.32
2019-02-09T14:40:31.442Z,63.67
2019-02-09T14:43:04.159Z,63.40
2019-02-09T14:45:38.055Z,63.75
2019-02-09T14:48:10.113Z,63.93
2019-02-09T14:50:42.270Z,63.63
2019-02-09T14:53:14.436Z,64.14
2019-02-09T14:55:46.526Z,64.14
2019-02-09T14:58:18.568Z,63.74
2019-02-09T15:00:51.987Z,64.07
2019-02-09T15:03:26.914Z,62.78
2019-02-09T15:05:57.961Z,63.52
2019-02-09T15:08:30.015Z,62.79
2019-02-09T15:11:02.080Z,63.06
2019-02-09T15:13:34.099Z,63.52
2019-02-09T15:16:21.615Z,63.30
2019-02-09T15:18:53.602Z,63.17
2019-02-09T15:21:25.637Z,63.56
2019-02-09T15:23:57.642Z,63.29
2019-02-09T15:26:29.691Z,64.03
2019-02-09T15:29:01.798Z,63.42
2019-02-09T15:31:33.885Z,63.43
2019-02-09T15:34:10.325Z,63.13
2019-02-09T15:36:40.935Z,62.75
2019-02-09T15:39:13.039Z,62.28
2019-02-09T15:41:45.108Z,62.07
2019-02-09T15:44:17.141Z,61.64
2019-02-09T15:46:49.193Z,61.00
2019-02-09T15:49:21.226Z,61.69
2019-02-09T15:51:53.351Z,61.59
2019-02-09T15:54:25.500Z,61.29
2019-02-09T15:56:57.701Z,61.14
2019-02-09T15:59:29.771Z,61.26
2019-02-09T16:02:01.752Z,61.18
2019-02-09T16:04:33.836Z,61.57
2019-02-09T16:07:05.920Z,60.98
2019-02-09T16:09:38.080Z,61.24
2019-02-09T16:12:10.147Z,61.82
2019-02-09T16:14:42.255Z,61.62
2019-02-09T16:17:15.452Z,61.40
2019-02-09T16:19:47.616Z,61.49
2019-02-09T16:22:19.692Z,61.62
2019-02-09T16:24:52.891Z,61.72
2019-02-09T16:27:24.985Z,61.61
2019-02-09T16:29:56.969Z,61.91
2019-02-09T16:32:29.030Z,62.00
2019-02-09T16:35:01.112Z,62.03
2019-02-09T16:37:33.277Z,62.20
2019-02-09T16:40:07.217Z,62.55
2019-02-09T16:42:39.272Z,62.31
2019-02-09T16:45:15.101Z,62.11
2019-02-09T16:47:47.349Z,62.29
2019-02-09T16:50:20.137Z,62.10
2019-02-09T16:52:52.258Z,62.01
2019-02-09T16:55:24.347Z,61.74
2019-02-09T16:57:56.446Z,62.10
2019-02-09T17:00:31.423Z,62.25
2019-02-09T17:03:06.038Z,63.03
2019-02-09T17:05:38.741Z,62.54
2019-02-09T17:08:10.817Z,62.60
2019-02-09T17:10:44.673Z,63.01
2019-02-09T17:13:19.448Z,63.12
2019-02-09T17:15:51.505Z,62.33
2019-02-09T17:18:23.585Z,62.59
2019-02-09T17:20:55.685Z,62.31
2019-02-09T17:23:28.026Z,62.63
2019-02-09T17:26:00.078Z,62.56
2019-02-09T17:28:32.209Z,62.40
2019-02-09T17:31:04.229Z,61.80
2019-02-09T17:33:36.335Z,61.96
2019-02-09T17:36:08.378Z,61.74
2019-02-09T17:38:42.243Z,60.25
2019-02-09T17:41:14.393Z,59.32
2019-02-09T17:43:46.418Z,58.83
2019-02-09T17:46:18.658Z,58.49
2019-02-09T17:48:50.705Z,58.87
2019-02-09T17:51:22.999Z,58.95
2019-02-09T17:53:55.067Z,58.40
2019-02-09T17:56:27.322Z,58.90
2019-02-09T17:58:59.464Z,58.67
2019-02-09T18:01:31.674Z,57.79
2019-02-09T18:04:03.957Z,57.94
2019-02-09T18:06:35.962Z,57.65
2019-02-09T18:09:07.996Z,57.58
2019-02-09T18:11:40.085Z,57.70
2019-02-09T18:14:12.181Z,58.02
2019-02-09T18:16:44.288Z,58.10
2019-02-09T18:19:16.367Z,57.91
2019-02-09T18:21:48.383Z,58.15
2019-02-09T18:24:20.442Z,57.95
2019-02-09T18:26:52.486Z,57.84
2019-02-09T18:29:24.538Z,57.57
2019-02-09T18:31:56.569Z,57.71
2019-02-09T18:34:29.665Z,57.37
2019-02-09T18:37:01.738Z,57.44
2019-02-09T18:39:33.773Z,58.18
2019-02-09T18:42:05.850Z,57.89
2019-02-09T18:44:38.052Z,57.74
2019-02-09T18:47:10.082Z,58.11
2019-02-09T18:49:42.148Z,58.18
2019-02-09T18:52:14.183Z,58.56
2019-02-09T18:54:46.237Z,58.89
2019-02-09T18:57:18.281Z,58.70
2019-02-09T18:59:50.502Z,59.42
2019-02-09T19:02:24.065Z,58.78
2019-02-09T19:05:03.220Z,58.84
2019-02-09T19:07:34.032Z,59.02
2019-02-09T19:10:09.135Z,59.04
2019-02-09T19:12:41.236Z,58.91
2019-02-09T19:15:14.662Z,59.33
2019-02-09T19:17:47.023Z,59.80
2019-02-09T19:20:42.666Z,59.60
2019-02-09T19:23:14.728Z,59.16
2019-02-09T19:25:48.058Z,59.68
2019-02-09T19:28:20.182Z,59.54
2019-02-09T19:30:52.374Z,59.45
2019-02-09T19:33:24.469Z,59.01
2019-02-09T19:35:56.628Z,59.33
2019-02-09T19:38:30.037Z,59.37
2019-02-09T19:41:02.085Z,59.89
2019-02-09T19:43:34.137Z,60.37
2019-02-09T19:46:06.436Z,60.29
2019-02-09T19:48:39.598Z,60.56
2019-02-09T19:51:12.724Z,60.75
2019-02-09T19:53:44.866Z,61.30
2019-02-09T19:56:16.933Z,61.70
2019-02-09T19:58:48.988Z,61.83
2019-02-09T20:01:21.000Z,62.00
2019-02-09T20:03:53.133Z,62.42
2019-02-09T20:06:25.201Z,62.46
2019-02-09T20:08:58.931Z,62.69
2019-02-09T20:11:31.093Z,62.90
2019-02-09T20:14:03.918Z,63.09
2019-02-09T20:16:36.009Z,63.24
2019-02-09T20:19:08.076Z,63.30
2019-02-09T20:21:40.279Z,63.32
2019-02-09T20:24:12.466Z,63.57
2019-02-09T20:26:44.469Z,63.88
2019-02-09T20:29:16.742Z,63.93
2019-02-09T20:31:48.836Z,64.09
2019-02-09T20:34:21.049Z,64.34
2019-02-09T20:36:53.115Z,64.51
2019-02-09T20:39:25.177Z,64.72
2019-02-09T20:41:57.233Z,64.93
2019-02-09T20:44:29.556Z,65.33
2019-02-09T20:47:01.618Z,65.89
2019-02-09T20:49:35.533Z,66.17
2019-02-09T20:52:07.758Z,66.48
2019-02-09T20:54:40.268Z,66.72
2019-02-09T20:57:12.291Z,67.22
2019-02-09T20:59:44.534Z,67.11
2019-02-09T21:02:16.570Z,67.12
2019-02-09T21:04:50.659Z,67.47
2019-02-09T21:07:24.566Z,67.69
2019-02-09T21:09:56.572Z,68.10
2019-02-09T21:12:28.577Z,68.24
2019-02-09T21:15:00.678Z,68.40
2019-02-09T21:17:32.741Z,68.55
2019-02-09T21:20:05.178Z,68.98
2019-02-09T21:22:37.401Z,69.38
2019-02-09T21:25:12.532Z,69.46
2019-02-09T21:27:44.516Z,69.86
2019-02-09T21:30:17.841Z,69.72
2019-02-09T21:32:49.933Z,69.87
2019-02-09T21:35:22.061Z,69.84
2019-02-09T21:37:54.126Z,70.09
2019-02-09T21:40:26.980Z,70.04
2019-02-09T21:42:59.001Z,70.39
2019-02-09T21:45:31.057Z,69.90
2019-02-09T21:48:03.363Z,69.81
2019-02-09T21:50:35.963Z,69.60
2019-02-09T21:53:07.946Z,69.84
2019-02-09T21:55:40.932Z,70.58
2019-02-09T21:58:13.046Z,70.92
2019-02-09T22:00:45.096Z,71.53
2019-02-09T22:03:17.623Z,71.88
2019-02-09T22:05:51.945Z,72.31
2019-02-09T22:08:23.617Z,72.46
2019-02-09T22:10:55.674Z,72.63
2019-02-09T22:13:27.675Z,72.77
2019-02-09T22:15:59.738Z,72.78
2019-02-09T22:18:31.872Z,72.92
2019-02-09T22:21:03.996Z,73.02
2019-02-09T22:23:36.016Z,73.22
2019-02-09T22:26:13.259Z,73.16
2019-02-09T22:28:41.976Z,73.09
2019-02-09T22:31:21.513Z,73.17
2019-02-09T22:33:48.695Z,73.17
2019-02-09T22:36:20.881Z,72.78
2019-02-09T22:38:52.921Z,72.59
2019-02-09T22:41:24.948Z,72.82
2019-02-09T22:43:56.957Z,72.98
2019-02-09T22:46:30.083Z,73.28
2019-02-09T22:49:02.086Z,73.36
2019-02-09T22:51:34.336Z,73.63
2019-02-09T22:54:07.126Z,73.55
2019-02-09T22:56:39.133Z,73.92
2019-02-09T22:59:11.161Z,72.47
2019-02-09T23:01:46.013Z,72.79
2019-02-09T23:04:52.113Z,73.52
2019-02-09T23:07:31.943Z,73.48
2019-02-09T23:10:10.031Z,73.05
2019-02-09T23:12:48.370Z,73.83
2019-02-09T23:15:15.931Z,73.85
2019-02-09T23:17:47.939Z,74.17
2019-02-09T23:20:19.973Z,74.29
2019-02-09T23:22:51.985Z,74.77
2019-02-09T23:25:23.969Z,75.12
2019-02-09T23:27:55.946Z,75.19
2019-02-09T23:30:27.947Z,75.37
2019-02-09T23:32:59.922Z,75.37
2019-02-09T23:35:31.957Z,75.74
2019-02-09T23:38:03.946Z,75.59
2019-02-09T23:40:35.955Z,75.74
2019-02-09T23:43:08.065Z,75.63
2019-02-09T23:45:40.118Z,75.47
2019-02-09T23:48:12.140Z,75.69
2019-02-09T23:50:44.181Z,75.68
2019-02-09T23:53:16.146Z,75.97
2019-02-09T23:55:48.193Z,75.96
2019-02-09T23:58:20.184Z,75.78
